sensor_id;sensor_type;location;lat;lon;timestamp;P1;durP1;ratioP1;P2;durP2;ratioP2
79126;SDS011;68528;48.814;8.904;2023-07-31T00:02:06;2.75;;;1.95;;
79126;SDS011;68528;48.814;8.904;2023-07-31T00:06:13;4.13;;;1.30;;
79126;SDS011;68528;48.814;8.904;2023-07-31T00:09:40;1.92;;;1.33;;
79126;SDS011;68528;48.814;8.904;2023-07-31T00:13:09;2.65;;;1.42;;
79126;SDS011;68528;48.814;8.904;2023-07-31T00:16:37;2.83;;;1.20;;
79126;SDS011;68528;48.814;8.904;2023-07-31T00:20:13;3.55;;;1.42;;
79126;SDS011;68528;48.814;8.904;2023-07-31T00:23:53;2.97;;;1.65;;
79126;SDS011;68528;48.814;8.904;2023-07-31T00:27:38;3.28;;;1.10;;
79126;SDS011;68528;48.814;8.904;2023-07-31T00:31:03;3.03;;;1.30;;
79126;SDS011;68528;48.814;8.904;2023-07-31T00:34:27;6.50;;;1.45;;
79126;SDS011;68528;48.814;8.904;2023-07-31T00:37:53;2.92;;;1.48;;
79126;SDS011;68528;48.814;8.904;2023-07-31T00:41:54;6.65;;;1.38;;
79126;SDS011;68528;48.814;8.904;2023-07-31T00:45:49;2.17;;;1.20;;
79126;SDS011;68528;48.814;8.904;2023-07-31T00:49:13;1.95;;;1.20;;
79126;SDS011;68528;48.814;8.904;2023-07-31T00:52:38;2.80;;;1.20;;
79126;SDS011;68528;48.814;8.904;2023-07-31T00:56:03;3.38;;;1.45;;
79126;SDS011;68528;48.814;8.904;2023-07-31T01:07:13;3.47;;;1.83;;
79126;SDS011;68528;48.814;8.904;2023-07-31T01:10:46;2.17;;;1.17;;
79126;SDS011;68528;48.814;8.904;2023-07-31T01:14:21;5.03;;;1.05;;
79126;SDS011;68528;48.814;8.904;2023-07-31T01:17:50;3.00;;;1.48;;
79126;SDS011;68528;48.814;8.904;2023-07-31T01:21:43;3.05;;;1.30;;
79126;SDS011;68528;48.814;8.904;2023-07-31T01:29:28;4.22;;;1.77;;
79126;SDS011;68528;48.814;8.904;2023-07-31T01:33:02;4.65;;;1.50;;
79126;SDS011;68528;48.814;8.904;2023-07-31T01:36:28;2.45;;;1.13;;
79126;SDS011;68528;48.814;8.904;2023-07-31T01:39:55;2.85;;;1.50;;
79126;SDS011;68528;48.814;8.904;2023-07-31T01:43:21;2.88;;;1.48;;
79126;SDS011;68528;48.814;8.904;2023-07-31T01:46:45;5.00;;;2.58;;
79126;SDS011;68528;48.814;8.904;2023-07-31T01:50:11;3.25;;;1.35;;
79126;SDS011;68528;48.814;8.904;2023-07-31T01:53:36;2.80;;;1.20;;
79126;SDS011;68528;48.814;8.904;2023-07-31T01:57:03;2.97;;;1.70;;
79126;SDS011;68528;48.814;8.904;2023-07-31T02:00:28;3.72;;;1.70;;
79126;SDS011;68528;48.814;8.904;2023-07-31T02:04:15;2.55;;;1.17;;
79126;SDS011;68528;48.814;8.904;2023-07-31T02:07:59;3.85;;;1.55;;
79126;SDS011;68528;48.814;8.904;2023-07-31T02:11:23;2.35;;;1.33;;
79126;SDS011;68528;48.814;8.904;2023-07-31T02:14:49;2.60;;;1.27;;
79126;SDS011;68528;48.814;8.904;2023-07-31T02:18:23;3.63;;;1.63;;
79126;SDS011;68528;48.814;8.904;2023-07-31T02:21:47;3.20;;;1.77;;
79126;SDS011;68528;48.814;8.904;2023-07-31T02:25:14;3.15;;;1.40;;
79126;SDS011;68528;48.814;8.904;2023-07-31T02:28:39;2.35;;;1.38;;
79126;SDS011;68528;48.814;8.904;2023-07-31T02:32:09;5.40;;;1.58;;
79126;SDS011;68528;48.814;8.904;2023-07-31T02:38:59;5.47;;;1.88;;
79126;SDS011;68528;48.814;8.904;2023-07-31T02:42:23;2.95;;;1.45;;
79126;SDS011;68528;48.814;8.904;2023-07-31T02:45:50;3.17;;;1.67;;
79126;SDS011;68528;48.814;8.904;2023-07-31T02:49:21;4.03;;;1.40;;
79126;SDS011;68528;48.814;8.904;2023-07-31T02:52:48;2.95;;;1.58;;
79126;SDS011;68528;48.814;8.904;2023-07-31T02:56:33;3.05;;;1.60;;
79126;SDS011;68528;48.814;8.904;2023-07-31T02:59:57;4.65;;;1.55;;
79126;SDS011;68528;48.814;8.904;2023-07-31T03:03:23;1.52;;;1.30;;
79126;SDS011;68528;48.814;8.904;2023-07-31T03:06:47;1.95;;;1.50;;
79126;SDS011;68528;48.814;8.904;2023-07-31T03:10:18;4.82;;;1.50;;
79126;SDS011;68528;48.814;8.904;2023-07-31T03:13:56;4.88;;;1.75;;
79126;SDS011;68528;48.814;8.904;2023-07-31T03:17:20;1.95;;;1.38;;
79126;SDS011;68528;48.814;8.904;2023-07-31T03:20:44;3.15;;;1.83;;
79126;SDS011;68528;48.814;8.904;2023-07-31T03:24:10;4.40;;;1.20;;
79126;SDS011;68528;48.814;8.904;2023-07-31T03:27:37;3.45;;;1.25;;
79126;SDS011;68528;48.814;8.904;2023-07-31T03:31:07;4.28;;;1.52;;
79126;SDS011;68528;48.814;8.904;2023-07-31T03:34:31;4.00;;;1.90;;
79126;SDS011;68528;48.814;8.904;2023-07-31T03:37:59;3.58;;;1.55;;
79126;SDS011;68528;48.814;8.904;2023-07-31T03:41:25;3.13;;;1.40;;
79126;SDS011;68528;48.814;8.904;2023-07-31T03:45:30;3.17;;;1.42;;
79126;SDS011;68528;48.814;8.904;2023-07-31T03:48:55;2.17;;;1.45;;
79126;SDS011;68528;48.814;8.904;2023-07-31T03:52:25;3.00;;;1.42;;
79126;SDS011;68528;48.814;8.904;2023-07-31T03:55:49;2.58;;;1.60;;
79126;SDS011;68528;48.814;8.904;2023-07-31T03:59:13;5.82;;;3.05;;
79126;SDS011;68528;48.814;8.904;2023-07-31T04:06:28;2.53;;;1.25;;
79126;SDS011;68528;48.814;8.904;2023-07-31T04:10:00;4.03;;;1.40;;
79126;SDS011;68528;48.814;8.904;2023-07-31T04:13:24;2.70;;;1.30;;
79126;SDS011;68528;48.814;8.904;2023-07-31T04:16:48;1.95;;;1.48;;
79126;SDS011;68528;48.814;8.904;2023-07-31T04:20:12;3.80;;;1.50;;
79126;SDS011;68528;48.814;8.904;2023-07-31T04:23:42;3.10;;;1.23;;
79126;SDS011;68528;48.814;8.904;2023-07-31T04:27:27;5.50;;;1.30;;
79126;SDS011;68528;48.814;8.904;2023-07-31T04:31:21;4.40;;;1.30;;
79126;SDS011;68528;48.814;8.904;2023-07-31T04:34:46;4.65;;;1.48;;
79126;SDS011;68528;48.814;8.904;2023-07-31T04:38:16;2.55;;;1.40;;
79126;SDS011;68528;48.814;8.904;2023-07-31T04:41:44;1.77;;;1.60;;
79126;SDS011;68528;48.814;8.904;2023-07-31T04:45:11;5.10;;;1.27;;
79126;SDS011;68528;48.814;8.904;2023-07-31T04:48:35;4.13;;;1.45;;
79126;SDS011;68528;48.814;8.904;2023-07-31T04:51:59;3.25;;;1.80;;
79126;SDS011;68528;48.814;8.904;2023-07-31T04:55:38;7.28;;;1.85;;
79126;SDS011;68528;48.814;8.904;2023-07-31T04:59:04;4.10;;;1.60;;
79126;SDS011;68528;48.814;8.904;2023-07-31T05:02:52;4.05;;;1.40;;
79126;SDS011;68528;48.814;8.904;2023-07-31T05:06:16;2.88;;;1.50;;
79126;SDS011;68528;48.814;8.904;2023-07-31T05:09:42;3.92;;;1.20;;
79126;SDS011;68528;48.814;8.904;2023-07-31T05:13:05;4.53;;;1.42;;
79126;SDS011;68528;48.814;8.904;2023-07-31T05:16:34;5.35;;;1.65;;
79126;SDS011;68528;48.814;8.904;2023-07-31T05:20:18;7.75;;;1.50;;
79126;SDS011;68528;48.814;8.904;2023-07-31T05:23:43;2.20;;;1.55;;
79126;SDS011;68528;48.814;8.904;2023-07-31T05:31:31;5.43;;;1.70;;
79126;SDS011;68528;48.814;8.904;2023-07-31T05:34:55;3.03;;;1.40;;
79126;SDS011;68528;48.814;8.904;2023-07-31T05:38:34;2.38;;;1.50;;
79126;SDS011;68528;48.814;8.904;2023-07-31T05:42:36;2.85;;;1.60;;
79126;SDS011;68528;48.814;8.904;2023-07-31T05:46:04;2.85;;;1.50;;
79126;SDS011;68528;48.814;8.904;2023-07-31T05:49:28;3.97;;;1.50;;
79126;SDS011;68528;48.814;8.904;2023-07-31T05:52:52;3.60;;;1.30;;
79126;SDS011;68528;48.814;8.904;2023-07-31T05:56:53;4.93;;;1.50;;
79126;SDS011;68528;48.814;8.904;2023-07-31T06:00:24;5.10;;;1.48;;
79126;SDS011;68528;48.814;8.904;2023-07-31T06:03:50;2.28;;;1.20;;
79126;SDS011;68528;48.814;8.904;2023-07-31T06:07:15;2.92;;;1.35;;
79126;SDS011;68528;48.814;8.904;2023-07-31T06:10:49;3.72;;;1.30;;
79126;SDS011;68528;48.814;8.904;2023-07-31T06:14:13;1.83;;;1.10;;
79126;SDS011;68528;48.814;8.904;2023-07-31T06:17:38;7.97;;;1.30;;
79126;SDS011;68528;48.814;8.904;2023-07-31T06:21:02;3.25;;;1.45;;
79126;SDS011;68528;48.814;8.904;2023-07-31T06:24:27;3.78;;;1.20;;
79126;SDS011;68528;48.814;8.904;2023-07-31T06:27:55;2.10;;;1.40;;
79126;SDS011;68528;48.814;8.904;2023-07-31T06:31:37;4.85;;;1.42;;
79126;SDS011;68528;48.814;8.904;2023-07-31T06:35:03;4.60;;;1.20;;
79126;SDS011;68528;48.814;8.904;2023-07-31T06:38:27;4.18;;;1.45;;
79126;SDS011;68528;48.814;8.904;2023-07-31T06:41:51;4.78;;;1.50;;
79126;SDS011;68528;48.814;8.904;2023-07-31T06:45:15;2.40;;;1.38;;
79126;SDS011;68528;48.814;8.904;2023-07-31T06:48:45;4.70;;;1.38;;
79126;SDS011;68528;48.814;8.904;2023-07-31T06:52:41;3.40;;;1.40;;
79126;SDS011;68528;48.814;8.904;2023-07-31T06:57:04;1.65;;;0.90;;
79126;SDS011;68528;48.814;8.904;2023-07-31T07:00:49;3.70;;;1.20;;
79126;SDS011;68528;48.814;8.904;2023-07-31T07:04:19;3.72;;;1.20;;
79126;SDS011;68528;48.814;8.904;2023-07-31T07:07:44;3.15;;;1.05;;
79126;SDS011;68528;48.814;8.904;2023-07-31T07:11:11;3.13;;;0.93;;
79126;SDS011;68528;48.814;8.904;2023-07-31T07:14:35;5.15;;;1.25;;
79126;SDS011;68528;48.814;8.904;2023-07-31T07:18:00;2.13;;;1.00;;
79126;SDS011;68528;48.814;8.904;2023-07-31T07:21:49;3.03;;;1.20;;
79126;SDS011;68528;48.814;8.904;2023-07-31T07:25:37;3.35;;;1.40;;
79126;SDS011;68528;48.814;8.904;2023-07-31T07:29:08;5.15;;;1.20;;
79126;SDS011;68528;48.814;8.904;2023-07-31T07:36:21;3.55;;;1.10;;
79126;SDS011;68528;48.814;8.904;2023-07-31T07:39:45;7.82;;;1.30;;
79126;SDS011;68528;48.814;8.904;2023-07-31T07:43:09;3.38;;;1.45;;
79126;SDS011;68528;48.814;8.904;2023-07-31T07:46:33;3.67;;;1.45;;
79126;SDS011;68528;48.814;8.904;2023-07-31T07:49:57;3.05;;;1.13;;
79126;SDS011;68528;48.814;8.904;2023-07-31T07:53:21;2.80;;;1.33;;
79126;SDS011;68528;48.814;8.904;2023-07-31T07:56:46;1.83;;;1.10;;
79126;SDS011;68528;48.814;8.904;2023-07-31T08:00:10;3.75;;;1.23;;
79126;SDS011;68528;48.814;8.904;2023-07-31T08:03:43;3.03;;;1.38;;
79126;SDS011;68528;48.814;8.904;2023-07-31T08:07:12;7.05;;;1.65;;
79126;SDS011;68528;48.814;8.904;2023-07-31T08:10:56;3.50;;;1.23;;
79126;SDS011;68528;48.814;8.904;2023-07-31T08:14:22;5.75;;;1.33;;
79126;SDS011;68528;48.814;8.904;2023-07-31T08:17:46;3.45;;;1.17;;
79126;SDS011;68528;48.814;8.904;2023-07-31T08:21:10;5.35;;;1.80;;
79126;SDS011;68528;48.814;8.904;2023-07-31T08:24:36;5.03;;;1.45;;
79126;SDS011;68528;48.814;8.904;2023-07-31T08:28:01;3.72;;;1.30;;
79126;SDS011;68528;48.814;8.904;2023-07-31T08:31:25;6.72;;;1.30;;
79126;SDS011;68528;48.814;8.904;2023-07-31T08:34:49;9.23;;;1.75;;
79126;SDS011;68528;48.814;8.904;2023-07-31T08:38:13;3.85;;;1.35;;
79126;SDS011;68528;48.814;8.904;2023-07-31T08:41:38;3.20;;;1.48;;
79126;SDS011;68528;48.814;8.904;2023-07-31T08:45:17;5.38;;;1.70;;
79126;SDS011;68528;48.814;8.904;2023-07-31T08:48:44;4.53;;;1.15;;
79126;SDS011;68528;48.814;8.904;2023-07-31T08:52:09;4.50;;;1.30;;
79126;SDS011;68528;48.814;8.904;2023-07-31T08:55:34;4.05;;;1.40;;
79126;SDS011;68528;48.814;8.904;2023-07-31T08:59:26;4.88;;;1.77;;
79126;SDS011;68528;48.814;8.904;2023-07-31T09:03:34;3.38;;;1.52;;
79126;SDS011;68528;48.814;8.904;2023-07-31T09:07:00;4.20;;;1.48;;
79126;SDS011;68528;48.814;8.904;2023-07-31T09:10:25;3.85;;;1.55;;
79126;SDS011;68528;48.814;8.904;2023-07-31T09:17:34;4.97;;;1.42;;
79126;SDS011;68528;48.814;8.904;2023-07-31T09:21:18;3.83;;;1.30;;
79126;SDS011;68528;48.814;8.904;2023-07-31T09:24:42;6.78;;;1.65;;
79126;SDS011;68528;48.814;8.904;2023-07-31T09:28:09;6.45;;;2.17;;
79126;SDS011;68528;48.814;8.904;2023-07-31T09:31:43;3.20;;;1.38;;
79126;SDS011;68528;48.814;8.904;2023-07-31T09:35:29;4.47;;;1.55;;
79126;SDS011;68528;48.814;8.904;2023-07-31T09:39:02;6.53;;;1.73;;
79126;SDS011;68528;48.814;8.904;2023-07-31T09:42:48;6.15;;;1.70;;
79126;SDS011;68528;48.814;8.904;2023-07-31T09:46:21;6.47;;;1.55;;
79126;SDS011;68528;48.814;8.904;2023-07-31T09:49:58;5.05;;;1.75;;
79126;SDS011;68528;48.814;8.904;2023-07-31T09:53:29;6.75;;;1.48;;
79126;SDS011;68528;48.814;8.904;2023-07-31T09:56:57;4.57;;;1.60;;
79126;SDS011;68528;48.814;8.904;2023-07-31T10:00:23;4.80;;;1.73;;
79126;SDS011;68528;48.814;8.904;2023-07-31T10:03:47;3.95;;;1.48;;
79126;SDS011;68528;48.814;8.904;2023-07-31T10:07:13;3.08;;;1.23;;
79126;SDS011;68528;48.814;8.904;2023-07-31T10:10:41;4.47;;;1.52;;
79126;SDS011;68528;48.814;8.904;2023-07-31T10:14:19;3.45;;;1.67;;
79126;SDS011;68528;48.814;8.904;2023-07-31T10:17:48;4.13;;;1.90;;
79126;SDS011;68528;48.814;8.904;2023-07-31T10:21:56;4.78;;;1.73;;
79126;SDS011;68528;48.814;8.904;2023-07-31T10:29:11;5.68;;;1.50;;
79126;SDS011;68528;48.814;8.904;2023-07-31T10:33:05;4.18;;;2.17;;
79126;SDS011;68528;48.814;8.904;2023-07-31T10:40:51;3.88;;;1.98;;
79126;SDS011;68528;48.814;8.904;2023-07-31T10:44:16;6.88;;;1.98;;
79126;SDS011;68528;48.814;8.904;2023-07-31T10:48:15;4.50;;;1.80;;
79126;SDS011;68528;48.814;8.904;2023-07-31T10:51:47;5.47;;;1.98;;
79126;SDS011;68528;48.814;8.904;2023-07-31T10:55:16;6.60;;;1.92;;
79126;SDS011;68528;48.814;8.904;2023-07-31T10:59:03;3.97;;;2.00;;
79126;SDS011;68528;48.814;8.904;2023-07-31T11:02:55;5.63;;;2.00;;
79126;SDS011;68528;48.814;8.904;2023-07-31T11:06:58;6.03;;;2.20;;
79126;SDS011;68528;48.814;8.904;2023-07-31T11:10:22;3.92;;;2.08;;
79126;SDS011;68528;48.814;8.904;2023-07-31T11:13:50;8.40;;;2.15;;
79126;SDS011;68528;48.814;8.904;2023-07-31T11:17:25;2.58;;;1.70;;
79126;SDS011;68528;48.814;8.904;2023-07-31T11:20:51;9.55;;;2.22;;
79126;SDS011;68528;48.814;8.904;2023-07-31T11:24:35;3.38;;;1.80;;
79126;SDS011;68528;48.814;8.904;2023-07-31T11:28:05;5.22;;;1.90;;
79126;SDS011;68528;48.814;8.904;2023-07-31T11:31:41;3.55;;;1.80;;
79126;SDS011;68528;48.814;8.904;2023-07-31T11:35:06;3.58;;;1.85;;
79126;SDS011;68528;48.814;8.904;2023-07-31T11:38:50;6.07;;;2.00;;
79126;SDS011;68528;48.814;8.904;2023-07-31T11:42:29;7.70;;;2.03;;
79126;SDS011;68528;48.814;8.904;2023-07-31T11:46:00;4.20;;;2.10;;
79126;SDS011;68528;48.814;8.904;2023-07-31T11:49:28;5.60;;;1.80;;
79126;SDS011;68528;48.814;8.904;2023-07-31T11:52:59;6.10;;;2.03;;
79126;SDS011;68528;48.814;8.904;2023-07-31T11:56:27;3.20;;;1.35;;
79126;SDS011;68528;48.814;8.904;2023-07-31T11:59:52;6.93;;;2.22;;
79126;SDS011;68528;48.814;8.904;2023-07-31T12:03:18;2.83;;;1.73;;
79126;SDS011;68528;48.814;8.904;2023-07-31T12:06:47;6.40;;;2.30;;
79126;SDS011;68528;48.814;8.904;2023-07-31T12:10:31;7.90;;;2.03;;
79126;SDS011;68528;48.814;8.904;2023-07-31T12:13:56;8.57;;;2.00;;
79126;SDS011;68528;48.814;8.904;2023-07-31T12:17:21;4.53;;;2.03;;
79126;SDS011;68528;48.814;8.904;2023-07-31T12:24:09;6.30;;;1.70;;
79126;SDS011;68528;48.814;8.904;2023-07-31T12:27:40;8.27;;;1.98;;
79126;SDS011;68528;48.814;8.904;2023-07-31T12:31:10;5.07;;;1.75;;
79126;SDS011;68528;48.814;8.904;2023-07-31T12:34:44;6.80;;;1.88;;
79126;SDS011;68528;48.814;8.904;2023-07-31T12:38:11;4.63;;;1.92;;
79126;SDS011;68528;48.814;8.904;2023-07-31T12:55:54;4.20;;;2.42;;
79126;SDS011;68528;48.814;8.904;2023-07-31T12:59:29;3.95;;;1.60;;
79126;SDS011;68528;48.814;8.904;2023-07-31T13:02:56;5.15;;;2.03;;
79126;SDS011;68528;48.814;8.904;2023-07-31T13:06:20;3.83;;;1.70;;
79126;SDS011;68528;48.814;8.904;2023-07-31T13:09:51;7.75;;;2.00;;
79126;SDS011;68528;48.814;8.904;2023-07-31T13:13:20;4.00;;;2.28;;
79126;SDS011;68528;48.814;8.904;2023-07-31T13:20:18;3.90;;;2.20;;
79126;SDS011;68528;48.814;8.904;2023-07-31T13:27:15;5.82;;;1.55;;
79126;SDS011;68528;48.814;8.904;2023-07-31T13:30:39;5.18;;;1.75;;
79126;SDS011;68528;48.814;8.904;2023-07-31T13:35:02;4.05;;;1.90;;
79126;SDS011;68528;48.814;8.904;2023-07-31T13:38:35;3.97;;;1.95;;
79126;SDS011;68528;48.814;8.904;2023-07-31T13:42:04;6.28;;;2.65;;
79126;SDS011;68528;48.814;8.904;2023-07-31T13:45:28;5.63;;;1.48;;
79126;SDS011;68528;48.814;8.904;2023-07-31T13:48:52;3.92;;;1.65;;
79126;SDS011;68528;48.814;8.904;2023-07-31T13:52:20;7.50;;;2.20;;
79126;SDS011;68528;48.814;8.904;2023-07-31T13:55:44;3.63;;;1.60;;
79126;SDS011;68528;48.814;8.904;2023-07-31T13:59:14;4.72;;;1.60;;
79126;SDS011;68528;48.814;8.904;2023-07-31T14:02:58;4.88;;;1.70;;
79126;SDS011;68528;48.814;8.904;2023-07-31T14:06:22;2.97;;;1.67;;
79126;SDS011;68528;48.814;8.904;2023-07-31T14:13:11;4.43;;;1.88;;
79126;SDS011;68528;48.814;8.904;2023-07-31T14:16:37;4.35;;;1.60;;
79126;SDS011;68528;48.814;8.904;2023-07-31T14:20:02;3.70;;;1.75;;
79126;SDS011;68528;48.814;8.904;2023-07-31T14:23:31;4.07;;;1.75;;
79126;SDS011;68528;48.814;8.904;2023-07-31T14:27:02;2.95;;;1.95;;
79126;SDS011;68528;48.814;8.904;2023-07-31T14:30:27;2.42;;;1.30;;
79126;SDS011;68528;48.814;8.904;2023-07-31T14:34:12;2.55;;;1.48;;
79126;SDS011;68528;48.814;8.904;2023-07-31T14:37:40;3.45;;;1.83;;
79126;SDS011;68528;48.814;8.904;2023-07-31T14:41:04;2.50;;;1.40;;
79126;SDS011;68528;48.814;8.904;2023-07-31T14:44:30;3.80;;;1.63;;
79126;SDS011;68528;48.814;8.904;2023-07-31T14:48:24;3.13;;;1.60;;
79126;SDS011;68528;48.814;8.904;2023-07-31T14:52:12;2.55;;;1.65;;
79126;SDS011;68528;48.814;8.904;2023-07-31T14:59:22;4.15;;;1.95;;
79126;SDS011;68528;48.814;8.904;2023-07-31T15:06:34;4.07;;;1.50;;
79126;SDS011;68528;48.814;8.904;2023-07-31T15:09:58;3.35;;;1.67;;
79126;SDS011;68528;48.814;8.904;2023-07-31T15:13:37;3.40;;;1.58;;
79126;SDS011;68528;48.814;8.904;2023-07-31T15:17:07;2.22;;;1.48;;
79126;SDS011;68528;48.814;8.904;2023-07-31T15:20:31;4.25;;;1.63;;
79126;SDS011;68528;48.814;8.904;2023-07-31T15:24:16;4.65;;;1.63;;
79126;SDS011;68528;48.814;8.904;2023-07-31T15:27:56;9.15;;;1.98;;
79126;SDS011;68528;48.814;8.904;2023-07-31T15:31:49;4.03;;;1.88;;
79126;SDS011;68528;48.814;8.904;2023-07-31T15:35:15;4.95;;;1.70;;
79126;SDS011;68528;48.814;8.904;2023-07-31T15:38:55;2.67;;;1.70;;
79126;SDS011;68528;48.814;8.904;2023-07-31T16:01:26;5.70;;;2.33;;
79126;SDS011;68528;48.814;8.904;2023-07-31T16:04:53;4.45;;;1.67;;
79126;SDS011;68528;48.814;8.904;2023-07-31T16:08:26;3.13;;;1.70;;
79126;SDS011;68528;48.814;8.904;2023-07-31T16:11:53;4.72;;;1.80;;
79126;SDS011;68528;48.814;8.904;2023-07-31T16:15:22;3.45;;;1.60;;
79126;SDS011;68528;48.814;8.904;2023-07-31T16:18:55;3.63;;;1.50;;
79126;SDS011;68528;48.814;8.904;2023-07-31T16:22:41;2.95;;;1.70;;
79126;SDS011;68528;48.814;8.904;2023-07-31T16:26:05;3.65;;;1.90;;
79126;SDS011;68528;48.814;8.904;2023-07-31T16:29:29;3.45;;;1.60;;
79126;SDS011;68528;48.814;8.904;2023-07-31T16:32:53;4.60;;;1.77;;
79126;SDS011;68528;48.814;8.904;2023-07-31T16:36:18;6.43;;;2.00;;
79126;SDS011;68528;48.814;8.904;2023-07-31T16:39:42;4.05;;;2.15;;
79126;SDS011;68528;48.814;8.904;2023-07-31T16:43:35;5.65;;;2.47;;
79126;SDS011;68528;48.814;8.904;2023-07-31T16:47:00;6.47;;;1.88;;
79126;SDS011;68528;48.814;8.904;2023-07-31T16:50:24;5.55;;;1.85;;
79126;SDS011;68528;48.814;8.904;2023-07-31T16:53:50;5.00;;;2.30;;
79126;SDS011;68528;48.814;8.904;2023-07-31T16:57:17;3.45;;;2.00;;
79126;SDS011;68528;48.814;8.904;2023-07-31T17:00:48;4.47;;;1.70;;
79126;SDS011;68528;48.814;8.904;2023-07-31T17:04:12;5.75;;;1.80;;
79126;SDS011;68528;48.814;8.904;2023-07-31T17:07:36;3.08;;;1.67;;
79126;SDS011;68528;48.814;8.904;2023-07-31T17:19:35;3.92;;;1.80;;
79126;SDS011;68528;48.814;8.904;2023-07-31T17:22:59;3.65;;;1.65;;
79126;SDS011;68528;48.814;8.904;2023-07-31T17:26:24;3.50;;;1.90;;
79126;SDS011;68528;48.814;8.904;2023-07-31T17:29:51;3.08;;;1.65;;
79126;SDS011;68528;48.814;8.904;2023-07-31T17:33:16;3.13;;;1.63;;
79126;SDS011;68528;48.814;8.904;2023-07-31T17:52:50;4.13;;;2.00;;
79126;SDS011;68528;48.814;8.904;2023-07-31T17:56:35;4.93;;;2.17;;
79126;SDS011;68528;48.814;8.904;2023-07-31T18:00:00;3.80;;;2.50;;
79126;SDS011;68528;48.814;8.904;2023-07-31T18:03:24;4.32;;;2.10;;
79126;SDS011;68528;48.814;8.904;2023-07-31T18:06:48;4.80;;;2.35;;
79126;SDS011;68528;48.814;8.904;2023-07-31T18:10:52;5.13;;;3.05;;
79126;SDS011;68528;48.814;8.904;2023-07-31T18:14:19;5.53;;;2.17;;
79126;SDS011;68528;48.814;8.904;2023-07-31T18:17:44;3.95;;;2.30;;
79126;SDS011;68528;48.814;8.904;2023-07-31T18:21:08;6.35;;;3.03;;
79126;SDS011;68528;48.814;8.904;2023-07-31T18:24:32;5.90;;;3.13;;
79126;SDS011;68528;48.814;8.904;2023-07-31T18:27:56;4.57;;;2.60;;
79126;SDS011;68528;48.814;8.904;2023-07-31T18:32:00;5.68;;;2.15;;
79126;SDS011;68528;48.814;8.904;2023-07-31T18:35:27;4.15;;;2.53;;
79126;SDS011;68528;48.814;8.904;2023-07-31T18:38:51;6.30;;;2.53;;
79126;SDS011;68528;48.814;8.904;2023-07-31T18:42:15;4.70;;;2.67;;
79126;SDS011;68528;48.814;8.904;2023-07-31T18:49:29;7.32;;;2.88;;
79126;SDS011;68528;48.814;8.904;2023-07-31T18:52:53;13.93;;;4.00;;
79126;SDS011;68528;48.814;8.904;2023-07-31T18:56:18;11.88;;;3.10;;
79126;SDS011;68528;48.814;8.904;2023-07-31T18:59:46;5.45;;;3.28;;
79126;SDS011;68528;48.814;8.904;2023-07-31T19:03:11;5.15;;;3.17;;
79126;SDS011;68528;48.814;8.904;2023-07-31T19:06:35;10.27;;;3.22;;
79126;SDS011;68528;48.814;8.904;2023-07-31T19:10:20;7.13;;;3.08;;
79126;SDS011;68528;48.814;8.904;2023-07-31T19:13:44;4.85;;;2.80;;
79126;SDS011;68528;48.814;8.904;2023-07-31T19:17:09;8.27;;;3.47;;
79126;SDS011;68528;48.814;8.904;2023-07-31T19:20:34;6.22;;;3.55;;
79126;SDS011;68528;48.814;8.904;2023-07-31T19:24:18;6.47;;;3.55;;
79126;SDS011;68528;48.814;8.904;2023-07-31T19:27:43;7.78;;;3.25;;
79126;SDS011;68528;48.814;8.904;2023-07-31T19:31:07;10.40;;;3.50;;
79126;SDS011;68528;48.814;8.904;2023-07-31T19:34:31;4.63;;;2.72;;
79126;SDS011;68528;48.814;8.904;2023-07-31T19:37:55;11.68;;;3.25;;
79126;SDS011;68528;48.814;8.904;2023-07-31T19:41:23;5.60;;;3.50;;
79126;SDS011;68528;48.814;8.904;2023-07-31T19:48:10;8.63;;;3.55;;
79126;SDS011;68528;48.814;8.904;2023-07-31T19:51:34;14.15;;;5.32;;
79126;SDS011;68528;48.814;8.904;2023-07-31T19:54:58;8.40;;;3.72;;
79126;SDS011;68528;48.814;8.904;2023-07-31T19:58:23;9.18;;;3.72;;
79126;SDS011;68528;48.814;8.904;2023-07-31T20:01:47;8.10;;;3.17;;
79126;SDS011;68528;48.814;8.904;2023-07-31T20:05:12;7.65;;;3.88;;
79126;SDS011;68528;48.814;8.904;2023-07-31T20:08:36;10.85;;;4.28;;
79126;SDS011;68528;48.814;8.904;2023-07-31T20:12:00;9.05;;;3.38;;
79126;SDS011;68528;48.814;8.904;2023-07-31T20:15:24;8.20;;;3.67;;
79126;SDS011;68528;48.814;8.904;2023-07-31T20:19:09;6.47;;;3.30;;
79126;SDS011;68528;48.814;8.904;2023-07-31T20:22:36;5.18;;;3.30;;
79126;SDS011;68528;48.814;8.904;2023-07-31T20:26:08;4.80;;;3.13;;
79126;SDS011;68528;48.814;8.904;2023-07-31T20:29:42;8.95;;;3.40;;
79126;SDS011;68528;48.814;8.904;2023-07-31T20:36:35;6.20;;;3.15;;
79126;SDS011;68528;48.814;8.904;2023-07-31T20:39:59;7.68;;;2.72;;
79126;SDS011;68528;48.814;8.904;2023-07-31T20:43:23;5.95;;;3.17;;
79126;SDS011;68528;48.814;8.904;2023-07-31T20:46:47;4.50;;;3.00;;
79126;SDS011;68528;48.814;8.904;2023-07-31T20:50:11;7.15;;;3.10;;
79126;SDS011;68528;48.814;8.904;2023-07-31T20:53:37;7.28;;;3.30;;
79126;SDS011;68528;48.814;8.904;2023-07-31T20:57:01;7.07;;;4.32;;
79126;SDS011;68528;48.814;8.904;2023-07-31T21:00:25;6.93;;;3.22;;
79126;SDS011;68528;48.814;8.904;2023-07-31T21:03:50;7.57;;;3.38;;
79126;SDS011;68528;48.814;8.904;2023-07-31T21:07:14;7.13;;;3.53;;
79126;SDS011;68528;48.814;8.904;2023-07-31T21:10:38;4.80;;;3.38;;
79126;SDS011;68528;48.814;8.904;2023-07-31T21:14:02;4.75;;;2.72;;
79126;SDS011;68528;48.814;8.904;2023-07-31T21:17:26;5.43;;;3.30;;
79126;SDS011;68528;48.814;8.904;2023-07-31T21:20:51;5.90;;;2.83;;
79126;SDS011;68528;48.814;8.904;2023-07-31T21:24:15;7.18;;;3.13;;
79126;SDS011;68528;48.814;8.904;2023-07-31T21:27:42;7.75;;;3.58;;
79126;SDS011;68528;48.814;8.904;2023-07-31T21:31:35;5.72;;;3.88;;
79126;SDS011;68528;48.814;8.904;2023-07-31T21:39:00;12.43;;;3.60;;
79126;SDS011;68528;48.814;8.904;2023-07-31T21:42:27;5.07;;;3.40;;
79126;SDS011;68528;48.814;8.904;2023-07-31T21:45:54;9.93;;;3.45;;
79126;SDS011;68528;48.814;8.904;2023-07-31T21:49:29;7.15;;;3.50;;
79126;SDS011;68528;48.814;8.904;2023-07-31T21:52:53;10.98;;;3.47;;
79126;SDS011;68528;48.814;8.904;2023-07-31T21:56:23;9.60;;;3.78;;
79126;SDS011;68528;48.814;8.904;2023-07-31T21:59:50;5.60;;;3.08;;
79126;SDS011;68528;48.814;8.904;2023-07-31T22:03:14;8.38;;;3.15;;
79126;SDS011;68528;48.814;8.904;2023-07-31T22:06:38;5.88;;;3.72;;
79126;SDS011;68528;48.814;8.904;2023-07-31T22:10:03;8.43;;;3.25;;
79126;SDS011;68528;48.814;8.904;2023-07-31T22:13:27;4.78;;;2.78;;
79126;SDS011;68528;48.814;8.904;2023-07-31T22:16:56;6.78;;;3.60;;
79126;SDS011;68528;48.814;8.904;2023-07-31T22:20:20;9.48;;;3.25;;
79126;SDS011;68528;48.814;8.904;2023-07-31T22:23:50;6.65;;;3.30;;
79126;SDS011;68528;48.814;8.904;2023-07-31T22:27:22;4.55;;;2.58;;
79126;SDS011;68528;48.814;8.904;2023-07-31T22:30:47;7.40;;;3.70;;
79126;SDS011;68528;48.814;8.904;2023-07-31T22:34:15;8.10;;;3.22;;
79126;SDS011;68528;48.814;8.904;2023-07-31T22:37:39;4.85;;;2.88;;
79126;SDS011;68528;48.814;8.904;2023-07-31T22:41:03;9.48;;;3.10;;
79126;SDS011;68528;48.814;8.904;2023-07-31T22:44:27;5.95;;;3.15;;
79126;SDS011;68528;48.814;8.904;2023-07-31T22:48:26;4.65;;;2.65;;
79126;SDS011;68528;48.814;8.904;2023-07-31T22:52:02;10.38;;;3.33;;
79126;SDS011;68528;48.814;8.904;2023-07-31T22:55:35;5.30;;;3.00;;
79126;SDS011;68528;48.814;8.904;2023-07-31T22:59:16;7.18;;;3.38;;
79126;SDS011;68528;48.814;8.904;2023-07-31T23:02:55;7.55;;;3.20;;
79126;SDS011;68528;48.814;8.904;2023-07-31T23:06:19;6.93;;;2.90;;
79126;SDS011;68528;48.814;8.904;2023-07-31T23:10:02;7.35;;;3.33;;
79126;SDS011;68528;48.814;8.904;2023-07-31T23:14:15;10.27;;;3.78;;
79126;SDS011;68528;48.814;8.904;2023-07-31T23:17:57;11.57;;;3.88;;
79126;SDS011;68528;48.814;8.904;2023-07-31T23:25:08;8.40;;;4.20;;
79126;SDS011;68528;48.814;8.904;2023-07-31T23:28:38;7.95;;;3.88;;